Time;durP1;ratioP1;P1;durP2;ratioP2;P2;SDS_P1;SDS_P2;PMS_P1;PMS_P2;Temp;Humidity;BMP_temperature;BMP_pressure;BME280_temperature;BME280_humidity;BME280_pressure;Samples;Min_cycle;Max_cycle;Signal;HPM_P1;HPM_P2
2022/07/23 00:00:43;;;;;;;6.50;1.90;;;;;;;;;;5070389;28;20481;-80
2022/07/23 00:03:11;;;;;;;3.70;1.57;;;;;;;;;;5067043;28;20861;-80
2022/07/23 00:05:38;;;;;;;3.57;1.50;;;;;;;;;;5072191;28;20473;-80
2022/07/23 00:08:07;;;;;;;3.40;1.50;;;;;;;;;;5073419;28;20464;-80
2022/07/23 00:10:36;;;;;;;7.47;2.00;;;;;;;;;;5071798;28;20441;-81
2022/07/23 00:13:04;;;;;;;3.97;1.83;;;;;;;;;;5072930;28;20822;-80
2022/07/23 00:15:32;;;;;;;7.53;1.67;;;;;;;;;;5072588;28;20472;-80
2022/07/23 00:17:59;;;;;;;2.57;1.70;;;;;;;;;;5073555;28;20901;-81
2022/07/23 00:20:27;;;;;;;3.27;1.63;;;;;;;;;;5072167;28;20512;-81
2022/07/23 00:22:56;;;;;;;3.87;1.70;;;;;;;;;;5073166;28;20881;-80
2022/07/23 00:25:24;;;;;;;3.47;1.77;;;;;;;;;;5073373;28;20446;-79
2022/07/23 00:27:54;;;;;;;6.53;1.73;;;;;;;;;;5070640;28;20760;-80
2022/07/23 00:30:21;;;;;;;3.07;1.53;;;;;;;;;;5073908;28;20440;-80
2022/07/23 00:32:50;;;;;;;5.47;1.40;;;;;;;;;;5072912;28;20445;-80
2022/07/23 00:35:18;;;;;;;2.20;1.40;;;;;;;;;;5072066;28;20446;-80
2022/07/23 00:37:45;;;;;;;4.63;1.83;;;;;;;;;;5073811;28;20445;-80
2022/07/23 00:40:13;;;;;;;3.43;1.70;;;;;;;;;;5071844;28;20488;-79
2022/07/23 00:42:41;;;;;;;2.60;1.60;;;;;;;;;;5072977;28;20442;-80
2022/07/23 00:45:11;;;;;;;5.03;1.67;;;;;;;;;;5072932;28;20446;-79
2022/07/23 00:47:39;;;;;;;3.00;1.93;;;;;;;;;;5072105;28;20480;-79
2022/07/23 00:50:08;;;;;;;6.67;1.70;;;;;;;;;;5073194;28;20445;-79
2022/07/23 00:52:38;;;;;;;4.23;1.50;;;;;;;;;;5072574;28;20445;-80
2022/07/23 00:55:07;;;;;;;4.97;1.60;;;;;;;;;;5072387;28;20450;-80
2022/07/23 00:57:35;;;;;;;4.73;1.80;;;;;;;;;;5072558;28;20449;-80
2022/07/23 01:00:02;;;;;;;5.27;1.87;;;;;;;;;;5072951;28;20501;-80
2022/07/23 01:02:33;;;;;;;4.83;1.50;;;;;;;;;;5071132;28;20540;-78
2022/07/23 01:05:01;;;;;;;8.60;2.10;;;;;;;;;;5072945;28;20507;-79
2022/07/23 01:07:29;;;;;;;3.63;2.07;;;;;;;;;;5071149;28;20462;-80
2022/07/23 01:09:56;;;;;;;7.63;1.90;;;;;;;;;;5072357;28;20449;-81
2022/07/23 01:12:24;;;;;;;2.97;1.40;;;;;;;;;;5071000;28;20450;-81
2022/07/23 01:14:56;;;;;;;4.40;1.80;;;;;;;;;;5072021;28;20446;-80
2022/07/23 01:17:23;;;;;;;8.30;1.60;;;;;;;;;;5072855;28;20430;-81
2022/07/23 01:19:52;;;;;;;3.43;1.73;;;;;;;;;;5071555;28;20496;-80
2022/07/23 01:22:22;;;;;;;5.10;1.93;;;;;;;;;;5073251;28;20457;-80
2022/07/23 01:24:51;;;;;;;4.20;1.67;;;;;;;;;;5072177;28;20461;-80
2022/07/23 01:27:19;;;;;;;4.20;1.70;;;;;;;;;;5072945;28;20449;-80
2022/07/23 01:29:47;;;;;;;3.60;2.00;;;;;;;;;;5071845;28;20457;-80
2022/07/23 01:32:16;;;;;;;6.00;1.97;;;;;;;;;;5068495;28;20500;-80
2022/07/23 01:34:43;;;;;;;2.70;1.70;;;;;;;;;;5071393;28;20453;-81
2022/07/23 01:37:11;;;;;;;2.80;1.70;;;;;;;;;;5071727;28;20486;-81
2022/07/23 01:39:39;;;;;;;3.53;2.10;;;;;;;;;;5070613;28;20453;-81
2022/07/23 01:42:09;;;;;;;2.40;1.47;;;;;;;;;;5070411;28;20434;-81
2022/07/23 01:44:36;;;;;;;4.07;1.90;;;;;;;;;;5071092;28;20461;-82
2022/07/23 01:47:04;;;;;;;4.13;1.77;;;;;;;;;;5070404;28;20525;-80
2022/07/23 01:49:33;;;;;;;5.93;2.00;;;;;;;;;;5071212;28;20449;-80
2022/07/23 01:52:01;;;;;;;3.40;2.00;;;;;;;;;;5068354;28;20704;-79
2022/07/23 01:54:29;;;;;;;5.20;1.97;;;;;;;;;;5070566;28;20481;-81
2022/07/23 01:56:56;;;;;;;3.77;2.33;;;;;;;;;;5068269;28;20523;-80
2022/07/23 01:59:31;;;;;;;6.67;2.13;;;;;;;;;;5071814;28;20462;-80
2022/07/23 02:01:59;;;;;;;3.63;1.70;;;;;;;;;;5069031;28;20535;-80
2022/07/23 02:04:27;;;;;;;4.70;1.80;;;;;;;;;;5069050;28;20493;-80
2022/07/23 02:06:55;;;;;;;3.30;1.93;;;;;;;;;;5069115;28;20718;-80
2022/07/23 02:09:23;;;;;;;7.93;2.00;;;;;;;;;;5064437;28;20457;-78
2022/07/23 02:11:50;;;;;;;4.10;1.93;;;;;;;;;;5067376;28;20777;-79
2022/07/23 02:14:19;;;;;;;4.13;1.93;;;;;;;;;;5069974;28;20935;-81
2022/07/23 02:16:49;;;;;;;3.50;1.70;;;;;;;;;;5069191;28;20446;-80
2022/07/23 02:19:16;;;;;;;4.53;1.83;;;;;;;;;;5069298;28;20454;-80
2022/07/23 02:21:44;;;;;;;3.20;1.90;;;;;;;;;;5069805;28;20481;-80
2022/07/23 02:24:12;;;;;;;11.50;2.80;;;;;;;;;;5070624;28;20454;-80
2022/07/23 02:26:39;;;;;;;3.43;1.53;;;;;;;;;;5070784;28;20461;-80
2022/07/23 02:29:07;;;;;;;4.10;1.70;;;;;;;;;;5069846;28;20453;-80
2022/07/23 02:31:35;;;;;;;4.90;2.03;;;;;;;;;;5070395;28;20464;-80
2022/07/23 02:34:04;;;;;;;3.50;1.30;;;;;;;;;;5068608;28;20469;-81
2022/07/23 02:36:32;;;;;;;5.17;2.07;;;;;;;;;;5069853;28;20465;-80
2022/07/23 02:39:00;;;;;;;3.53;1.40;;;;;;;;;;5068974;28;20481;-81
2022/07/23 02:41:27;;;;;;;3.17;1.67;;;;;;;;;;5070763;28;20931;-80
2022/07/23 02:43:55;;;;;;;4.40;2.43;;;;;;;;;;5073805;28;20811;-80
2022/07/23 02:46:23;;;;;;;4.00;2.17;;;;;;;;;;5073889;28;20461;-80
2022/07/23 02:48:51;;;;;;;3.40;1.90;;;;;;;;;;5072619;28;20701;-80
2022/07/23 02:51:20;;;;;;;3.80;1.80;;;;;;;;;;5074158;28;20449;-80
2022/07/23 02:53:48;;;;;;;4.23;1.53;;;;;;;;;;5073576;28;20445;-80
2022/07/23 02:56:16;;;;;;;3.77;1.80;;;;;;;;;;5072038;28;20488;-80
2022/07/23 02:58:44;;;;;;;4.23;1.80;;;;;;;;;;5073819;28;20476;-80
2022/07/23 03:01:11;;;;;;;3.23;1.90;;;;;;;;;;5072602;28;20481;-80
2022/07/23 03:03:39;;;;;;;2.57;1.63;;;;;;;;;;5074162;28;20449;-80
2022/07/23 03:06:07;;;;;;;5.53;1.80;;;;;;;;;;5072920;28;20482;-80
2022/07/23 03:08:36;;;;;;;4.97;1.90;;;;;;;;;;5072686;28;20853;-81
2022/07/23 03:11:04;;;;;;;6.43;2.43;;;;;;;;;;5072954;28;20916;-80
2022/07/23 03:13:31;;;;;;;3.13;2.10;;;;;;;;;;5072135;28;21162;-80
2022/07/23 03:15:59;;;;;;;4.57;2.93;;;;;;;;;;5073642;28;20450;-80
2022/07/23 03:18:27;;;;;;;4.53;2.00;;;;;;;;;;5074043;28;20484;-81
2022/07/23 03:20:55;;;;;;;4.23;2.10;;;;;;;;;;5073823;28;20472;-80
2022/07/23 03:23:22;;;;;;;4.03;2.30;;;;;;;;;;5074770;28;20457;-80
2022/07/23 03:25:51;;;;;;;4.73;2.47;;;;;;;;;;5073375;28;20444;-80
2022/07/23 03:28:19;;;;;;;3.17;2.17;;;;;;;;;;5073214;28;20449;-80
2022/07/23 03:30:49;;;;;;;8.93;3.63;;;;;;;;;;5074153;28;20440;-80
2022/07/23 03:33:17;;;;;;;6.07;2.20;;;;;;;;;;5073366;28;20461;-80
2022/07/23 03:35:45;;;;;;;3.63;1.70;;;;;;;;;;5074236;28;20453;-80
2022/07/23 03:38:21;;;;;;;3.20;2.20;;;;;;;;;;5073505;28;20456;-80
2022/07/23 03:40:48;;;;;;;3.70;2.23;;;;;;;;;;5072307;28;20852;-81
2022/07/23 03:43:18;;;;;;;6.50;1.80;;;;;;;;;;5075490;28;20508;-80
2022/07/23 03:45:48;;;;;;;4.90;2.20;;;;;;;;;;5073444;28;20476;-80
2022/07/23 03:48:16;;;;;;;3.10;2.00;;;;;;;;;;5074061;28;20453;-81
2022/07/23 03:50:44;;;;;;;4.97;2.30;;;;;;;;;;5073593;28;20512;-81
2022/07/23 03:53:11;;;;;;;3.93;2.30;;;;;;;;;;5072752;28;20484;-81
2022/07/23 03:55:43;;;;;;;2.50;1.70;;;;;;;;;;5072391;28;20492;-80
2022/07/23 03:58:10;;;;;;;3.53;1.87;;;;;;;;;;5073696;28;20450;-80
2022/07/23 04:00:39;;;;;;;6.00;1.80;;;;;;;;;;5072879;28;20478;-80
2022/07/23 04:03:12;;;;;;;3.13;1.90;;;;;;;;;;5074235;28;20496;-80
2022/07/23 04:05:40;;;;;;;4.10;2.00;;;;;;;;;;5072945;28;20437;-80
2022/07/23 04:08:08;;;;;;;3.00;1.97;;;;;;;;;;5072419;28;20469;-80
2022/07/23 04:10:38;;;;;;;4.30;2.13;;;;;;;;;;5074069;28;20438;-81
2022/07/23 04:13:06;;;;;;;3.83;2.10;;;;;;;;;;5072016;28;20473;-81
2022/07/23 04:15:33;;;;;;;4.37;2.20;;;;;;;;;;5072006;28;20453;-79
2022/07/23 04:18:03;;;;;;;4.70;2.13;;;;;;;;;;5072707;28;20461;-80
2022/07/23 04:20:31;;;;;;;6.27;2.47;;;;;;;;;;5073816;28;20449;-79
2022/07/23 04:22:58;;;;;;;5.30;2.13;;;;;;;;;;5071483;28;20454;-80
2022/07/23 04:25:26;;;;;;;5.27;1.70;;;;;;;;;;5071781;28;20477;-81
2022/07/23 04:27:54;;;;;;;7.63;2.60;;;;;;;;;;5072030;28;20458;-80
2022/07/23 04:30:21;;;;;;;4.70;2.27;;;;;;;;;;5072386;28;20480;-81
2022/07/23 04:32:49;;;;;;;2.93;1.70;;;;;;;;;;5071766;28;20453;-80
2022/07/23 04:35:18;;;;;;;5.50;2.27;;;;;;;;;;5070512;28;20476;-79
2022/07/23 04:37:46;;;;;;;10.50;2.57;;;;;;;;;;5070676;28;20453;-80
2022/07/23 04:40:14;;;;;;;6.97;2.03;;;;;;;;;;5072008;28;20539;-79
2022/07/23 04:42:42;;;;;;;4.40;2.10;;;;;;;;;;5068819;28;20486;-79
2022/07/23 04:45:15;;;;;;;3.27;1.93;;;;;;;;;;5070713;28;20469;-81
2022/07/23 04:47:44;;;;;;;4.73;2.30;;;;;;;;;;5067879;28;20721;-78
2022/07/23 04:50:12;;;;;;;4.83;2.27;;;;;;;;;;5069761;28;20475;-81
2022/07/23 04:52:41;;;;;;;5.40;2.57;;;;;;;;;;5068080;28;20488;-80
2022/07/23 04:55:09;;;;;;;6.00;2.73;;;;;;;;;;5073424;28;20935;-81
2022/07/23 04:57:37;;;;;;;3.37;2.20;;;;;;;;;;5070880;28;20531;-78
2022/07/23 05:00:08;;;;;;;4.60;2.27;;;;;;;;;;5069749;28;20445;-80
2022/07/23 05:02:35;;;;;;;6.83;3.23;;;;;;;;;;5071221;28;20512;-80
2022/07/23 05:05:03;;;;;;;3.63;2.00;;;;;;;;;;5070223;28;20473;-80
2022/07/23 05:07:31;;;;;;;3.27;2.10;;;;;;;;;;5068185;28;20491;-78
2022/07/23 05:10:00;;;;;;;4.97;2.83;;;;;;;;;;5066409;28;20470;-79
2022/07/23 05:12:28;;;;;;;5.67;3.00;;;;;;;;;;5063988;28;20469;-80
2022/07/23 05:14:56;;;;;;;5.73;2.80;;;;;;;;;;5068416;28;20517;-80
2022/07/23 05:17:23;;;;;;;5.57;2.60;;;;;;;;;;5069622;28;20446;-80
2022/07/23 05:19:53;;;;;;;4.93;2.57;;;;;;;;;;5071780;28;20458;-80
2022/07/23 05:22:21;;;;;;;6.70;3.47;;;;;;;;;;5071821;28;20496;-80
2022/07/23 05:24:49;;;;;;;5.33;2.80;;;;;;;;;;5071934;28;20453;-80
2022/07/23 05:27:18;;;;;;;4.40;2.90;;;;;;;;;;5073441;28;20442;-80
2022/07/23 05:29:45;;;;;;;6.80;3.00;;;;;;;;;;5071129;28;20469;-80
2022/07/23 05:32:13;;;;;;;7.40;3.03;;;;;;;;;;5073795;28;20456;-81
2022/07/23 05:34:52;;;;;;;5.00;2.80;;;;;;;;;;5071716;28;20477;-80
2022/07/23 05:37:20;;;;;;;6.30;2.93;;;;;;;;;;5071745;28;20445;-81
2022/07/23 05:39:47;;;;;;;3.50;2.33;;;;;;;;;;5071892;28;20710;-80
2022/07/23 05:42:15;;;;;;;6.27;2.30;;;;;;;;;;5071019;28;20477;-80
2022/07/23 05:44:44;;;;;;;4.50;2.77;;;;;;;;;;5071079;28;20480;-79
2022/07/23 05:47:12;;;;;;;5.93;3.10;;;;;;;;;;5070523;28;20900;-80
2022/07/23 05:49:40;;;;;;;4.00;2.87;;;;;;;;;;5071154;28;20464;-80
2022/07/23 05:52:08;;;;;;;5.13;3.10;;;;;;;;;;5070926;28;20449;-79
2022/07/23 05:54:36;;;;;;;5.43;2.30;;;;;;;;;;5071995;28;20441;-79
2022/07/23 05:57:04;;;;;;;7.77;2.60;;;;;;;;;;5069745;28;20477;-80
2022/07/23 05:59:31;;;;;;;4.50;2.93;;;;;;;;;;5068257;28;20546;-79
2022/07/23 06:02:01;;;;;;;5.77;2.90;;;;;;;;;;5071049;28;20515;-79
2022/07/23 06:04:29;;;;;;;4.80;2.70;;;;;;;;;;5070004;28;20488;-80
2022/07/23 06:06:56;;;;;;;3.67;2.63;;;;;;;;;;5068795;28;20438;-80
2022/07/23 06:09:24;;;;;;;5.03;2.97;;;;;;;;;;5058405;28;20500;-80
2022/07/23 06:11:52;;;;;;;6.03;2.90;;;;;;;;;;5063229;28;20693;-80
2022/07/23 06:14:19;;;;;;;2.70;2.10;;;;;;;;;;5069237;28;20453;-80
2022/07/23 06:16:47;;;;;;;5.40;3.70;;;;;;;;;;5067923;28;20454;-79
2022/07/23 06:19:16;;;;;;;3.80;2.27;;;;;;;;;;5069392;28;20444;-79
2022/07/23 06:21:44;;;;;;;4.30;1.87;;;;;;;;;;5064775;28;20485;-80
2022/07/23 06:24:11;;;;;;;4.23;1.73;;;;;;;;;;5069461;28;20481;-80
2022/07/23 06:26:39;;;;;;;6.20;3.87;;;;;;;;;;5068477;28;20481;-79
2022/07/23 06:29:07;;;;;;;3.97;1.60;;;;;;;;;;5070933;28;20445;-79
2022/07/23 06:31:35;;;;;;;2.63;1.40;;;;;;;;;;5069517;28;20456;-79
2022/07/23 06:34:02;;;;;;;4.90;1.80;;;;;;;;;;5071554;28;20881;-80
2022/07/23 06:36:32;;;;;;;4.60;2.07;;;;;;;;;;5069979;28;20437;-78
2022/07/23 06:39:00;;;;;;;4.27;1.60;;;;;;;;;;5069925;28;20481;-80
2022/07/23 06:41:28;;;;;;;6.07;1.83;;;;;;;;;;5069498;28;20449;-79
2022/07/23 06:43:55;;;;;;;3.90;1.20;;;;;;;;;;5064693;28;20866;-80
2022/07/23 06:46:23;;;;;;;2.73;1.43;;;;;;;;;;5062591;28;20456;-81
2022/07/23 06:48:51;;;;;;;2.37;1.47;;;;;;;;;;5061396;28;20476;-80
2022/07/23 06:51:18;;;;;;;4.70;1.57;;;;;;;;;;5060761;28;20489;-81
2022/07/23 06:53:48;;;;;;;5.73;1.80;;;;;;;;;;5068556;28;20445;-80
2022/07/23 06:56:15;;;;;;;3.93;1.13;;;;;;;;;;5067897;28;20464;-80
2022/07/23 06:58:43;;;;;;;4.47;1.40;;;;;;;;;;5067677;28;20453;-80
2022/07/23 07:01:11;;;;;;;4.10;1.60;;;;;;;;;;5070594;28;20437;-79
2022/07/23 07:03:38;;;;;;;2.30;1.30;;;;;;;;;;5067497;28;20524;-78
2022/07/23 07:06:06;;;;;;;3.33;1.10;;;;;;;;;;5070246;28;20686;-79
2022/07/23 07:08:34;;;;;;;4.50;1.53;;;;;;;;;;5067928;28;20453;-79
2022/07/23 07:11:04;;;;;;;8.20;1.30;;;;;;;;;;5068307;28;20457;-78
2022/07/23 07:13:31;;;;;;;5.37;1.10;;;;;;;;;;5070299;28;20483;-80
2022/07/23 07:15:59;;;;;;;2.50;1.10;;;;;;;;;;5067720;28;20497;-80
2022/07/23 07:18:27;;;;;;;5.67;1.40;;;;;;;;;;5069229;28;20454;-79
2022/07/23 07:20:55;;;;;;;2.63;1.40;;;;;;;;;;5065468;28;20457;-80
2022/07/23 07:23:23;;;;;;;3.60;1.23;;;;;;;;;;5068598;28;20520;-80
2022/07/23 07:25:50;;;;;;;2.70;1.40;;;;;;;;;;5065728;28;20449;-79
2022/07/23 07:28:20;;;;;;;3.93;1.50;;;;;;;;;;5066907;28;20461;-79
2022/07/23 07:30:48;;;;;;;4.13;1.00;;;;;;;;;;5070061;28;20449;-80
2022/07/23 07:33:15;;;;;;;2.80;1.30;;;;;;;;;;5069665;28;20445;-80
2022/07/23 07:35:43;;;;;;;3.57;1.27;;;;;;;;;;5070233;28;20480;-80
2022/07/23 07:38:11;;;;;;;3.73;1.23;;;;;;;;;;5068935;28;20454;-80
2022/07/23 07:40:41;;;;;;;4.20;1.50;;;;;;;;;;5071495;28;20457;-79
2022/07/23 07:43:08;;;;;;;2.43;0.90;;;;;;;;;;5068939;28;20500;-78
2022/07/23 07:45:38;;;;;;;4.20;1.10;;;;;;;;;;5069020;28;20458;-79
2022/07/23 07:48:12;;;;;;;4.33;0.80;;;;;;;;;;5070265;28;20461;-80
2022/07/23 07:50:40;;;;;;;6.87;1.10;;;;;;;;;;5065679;28;20870;-81
2022/07/23 07:53:08;;;;;;;4.03;1.43;;;;;;;;;;5070464;28;20462;-80
2022/07/23 07:55:36;;;;;;;3.83;0.90;;;;;;;;;;5064257;28;20916;-80
2022/07/23 07:58:04;;;;;;;2.40;1.00;;;;;;;;;;5063024;28;20500;-81
2022/07/23 08:00:33;;;;;;;4.30;1.13;;;;;;;;;;5067798;28;20450;-80
2022/07/23 08:03:02;;;;;;;2.10;0.80;;;;;;;;;;5068735;28;20507;-81
2022/07/23 08:05:33;;;;;;;5.30;1.43;;;;;;;;;;5071106;28;20465;-78
2022/07/23 08:08:01;;;;;;;2.30;1.07;;;;;;;;;;5068254;28;20507;-81
2022/07/23 08:10:31;;;;;;;3.10;1.00;;;;;;;;;;5070132;28;20748;-81
2022/07/23 08:13:01;;;;;;;2.87;0.80;;;;;;;;;;5070094;28;20441;-80
2022/07/23 08:15:31;;;;;;;4.30;1.00;;;;;;;;;;5065391;28;20468;-78
2022/07/23 08:17:59;;;;;;;2.53;0.77;;;;;;;;;;5066385;28;20474;-79
2022/07/23 08:20:28;;;;;;;2.90;0.80;;;;;;;;;;5068369;28;20458;-80
2022/07/23 08:22:58;;;;;;;2.30;1.30;;;;;;;;;;5070414;28;20501;-80
2022/07/23 08:25:26;;;;;;;2.43;1.00;;;;;;;;;;5070535;28;20445;-80
2022/07/23 08:27:55;;;;;;;1.80;0.60;;;;;;;;;;5068538;28;20512;-77
2022/07/23 08:30:23;;;;;;;2.60;0.80;;;;;;;;;;5061417;28;20461;-80
2022/07/23 08:32:52;;;;;;;2.13;0.80;;;;;;;;;;5062525;28;20738;-79
2022/07/23 08:35:23;;;;;;;7.00;3.40;;;;;;;;;;5061555;28;20457;-81
2022/07/23 08:37:52;;;;;;;2.70;1.07;;;;;;;;;;5051261;28;21020;-80
2022/07/23 08:40:20;;;;;;;4.70;0.90;;;;;;;;;;5051088;28;20525;-80
2022/07/23 08:42:49;;;;;;;3.20;1.10;;;;;;;;;;5061430;28;20477;-81
2022/07/23 08:45:19;;;;;;;1.93;0.80;;;;;;;;;;5050888;28;20464;-78
2022/07/23 08:47:49;;;;;;;2.40;0.80;;;;;;;;;;5055968;28;20489;-79
2022/07/23 08:50:17;;;;;;;4.30;0.90;;;;;;;;;;5068990;28;20707;-80
2022/07/23 08:52:45;;;;;;;3.40;1.10;;;;;;;;;;5063752;28;20484;-77
2022/07/23 08:55:15;;;;;;;2.27;0.83;;;;;;;;;;5065214;28;20519;-77
2022/07/23 08:57:45;;;;;;;4.37;1.70;;;;;;;;;;5065569;28;20457;-80
2022/07/23 09:00:13;;;;;;;3.80;1.10;;;;;;;;;;5066104;28;20453;-79
2022/07/23 09:02:43;;;;;;;4.67;0.90;;;;;;;;;;5068877;28;20511;-79
2022/07/23 09:05:12;;;;;;;2.87;1.23;;;;;;;;;;5062836;28;20453;-79
2022/07/23 09:07:41;;;;;;;2.00;0.90;;;;;;;;;;5067719;28;20468;-79
2022/07/23 09:10:10;;;;;;;2.20;1.00;;;;;;;;;;5063007;28;20484;-78
2022/07/23 09:12:39;;;;;;;2.10;0.93;;;;;;;;;;5066200;28;20468;-79
2022/07/23 09:15:08;;;;;;;3.30;1.33;;;;;;;;;;5069684;28;20488;-78
2022/07/23 09:17:41;;;;;;;3.10;1.20;;;;;;;;;;5067667;28;20457;-80
2022/07/23 09:20:11;;;;;;;5.83;1.60;;;;;;;;;;5061079;28;20527;-80
2022/07/23 09:22:39;;;;;;;4.00;1.60;;;;;;;;;;5043821;28;20889;-81
2022/07/23 09:25:11;;;;;;;4.30;2.10;;;;;;;;;;5053024;28;20514;-81
2022/07/23 09:27:56;;;;;;;3.60;1.27;;;;;;;;;;5061565;28;20457;-82
2022/07/23 09:30:26;;;;;;;2.83;1.30;;;;;;;;;;5062155;28;20568;-81
2022/07/23 09:33:10;;;;;;;2.50;1.40;;;;;;;;;;5062467;28;20454;-79
2022/07/23 09:35:49;;;;;;;2.33;1.10;;;;;;;;;;5056535;28;20454;-80
2022/07/23 09:38:16;;;;;;;4.30;1.93;;;;;;;;;;5055378;28;20474;-79
2022/07/23 09:40:45;;;;;;;3.00;1.10;;;;;;;;;;5061332;28;20492;-80
2022/07/23 09:43:28;;;;;;;4.27;1.40;;;;;;;;;;5064497;28;20505;-79
2022/07/23 09:46:18;;;;;;;3.53;1.13;;;;;;;;;;5065256;28;20875;-79
2022/07/23 09:48:47;;;;;;;2.13;0.80;;;;;;;;;;5059971;28;20484;-81
2022/07/23 09:51:17;;;;;;;3.20;1.30;;;;;;;;;;5058189;28;20488;-80
2022/07/23 09:53:44;;;;;;;1.80;1.00;;;;;;;;;;5061074;28;20457;-80
2022/07/23 09:56:14;;;;;;;1.80;0.80;;;;;;;;;;5054456;28;20600;-79
2022/07/23 09:58:49;;;;;;;2.97;1.50;;;;;;;;;;5062072;28;20809;-80
2022/07/23 10:01:17;;;;;;;2.93;1.03;;;;;;;;;;5061275;28;20461;-81
2022/07/23 10:03:50;;;;;;;3.60;1.23;;;;;;;;;;5064467;28;20488;-78
2022/07/23 10:06:20;;;;;;;2.00;1.00;;;;;;;;;;5066089;28;20592;-80
2022/07/23 10:08:53;;;;;;;2.33;0.80;;;;;;;;;;5062355;28;20756;-80
2022/07/23 10:11:20;;;;;;;3.10;0.90;;;;;;;;;;5060575;28;20505;-80
2022/07/23 10:13:50;;;;;;;2.10;1.10;;;;;;;;;;5048561;28;20547;-78
2022/07/23 10:16:20;;;;;;;4.40;1.10;;;;;;;;;;5064859;28;20504;-80
2022/07/23 10:18:52;;;;;;;2.50;1.10;;;;;;;;;;5065199;28;20465;-78
2022/07/23 10:21:23;;;;;;;2.40;0.70;;;;;;;;;;5061951;28;20543;-77
2022/07/23 10:24:00;;;;;;;3.57;1.70;;;;;;;;;;5062700;28;20520;-79
2022/07/23 10:26:33;;;;;;;5.30;1.00;;;;;;;;;;5065763;28;20500;-80
2022/07/23 10:29:19;;;;;;;2.33;1.30;;;;;;;;;;5047854;28;20557;-79
2022/07/23 10:31:52;;;;;;;5.27;2.20;;;;;;;;;;5049622;28;20464;-77
2022/07/23 10:34:23;;;;;;;5.13;2.30;;;;;;;;;;5058247;28;20453;-78
2022/07/23 10:36:54;;;;;;;4.00;1.97;;;;;;;;;;5057477;28;20515;-79
2022/07/23 10:39:24;;;;;;;4.03;1.37;;;;;;;;;;5067825;28;20449;-79
2022/07/23 10:41:54;;;;;;;1.90;0.63;;;;;;;;;;5068430;28;20442;-79
2022/07/23 10:44:25;;;;;;;1.60;0.70;;;;;;;;;;5064512;28;20485;-79
2022/07/23 10:49:45;;;;;;;1.90;0.70;;;;;;;;;;5036978;28;20469;-78
2022/07/23 10:52:20;;;;;;;2.10;1.00;;;;;;;;;;5065559;28;20457;-79
2022/07/23 10:54:50;;;;;;;4.80;3.17;;;;;;;;;;5061565;28;20491;-80
2022/07/23 10:57:18;;;;;;;2.63;0.70;;;;;;;;;;5058690;28;20546;-78
2022/07/23 11:00:15;;;;;;;2.30;0.70;;;;;;;;;;5063634;28;20489;-79
2022/07/23 11:02:52;;;;;;;1.70;0.60;;;;;;;;;;5056143;28;20519;-78
2022/07/23 11:05:21;;;;;;;1.90;0.60;;;;;;;;;;5066718;28;20504;-80
2022/07/23 11:08:08;;;;;;;2.27;0.60;;;;;;;;;;5059504;28;20485;-78
2022/07/23 11:10:36;;;;;;;1.93;0.63;;;;;;;;;;5064586;28;20468;-81
2022/07/23 11:13:19;;;;;;;2.23;0.80;;;;;;;;;;5065084;28;20485;-80
2022/07/23 11:16:02;;;;;;;2.67;0.53;;;;;;;;;;5070214;28;20449;-83
2022/07/23 11:18:46;;;;;;;1.90;0.60;;;;;;;;;;5068932;28;20459;-81
2022/07/23 11:21:33;;;;;;;3.30;0.87;;;;;;;;;;5067420;28;20476;-79
2022/07/23 11:24:03;;;;;;;1.70;0.70;;;;;;;;;;5068191;28;20575;-80
2022/07/23 11:26:45;;;;;;;3.13;1.30;;;;;;;;;;5069124;28;20460;-79
2022/07/23 11:29:33;;;;;;;2.17;0.80;;;;;;;;;;5068126;28;20465;-81
2022/07/23 11:32:02;;;;;;;1.97;0.70;;;;;;;;;;5059278;28;20593;-80
2022/07/23 11:34:32;;;;;;;2.50;0.70;;;;;;;;;;5062383;28;20523;-78
2022/07/23 11:37:06;;;;;;;3.03;0.87;;;;;;;;;;5062526;28;20481;-79
2022/07/23 11:39:36;;;;;;;1.47;0.60;;;;;;;;;;5060025;28;20449;-78
2022/07/23 11:42:05;;;;;;;1.70;0.70;;;;;;;;;;5063328;28;20523;-79
2022/07/23 11:44:34;;;;;;;1.80;0.80;;;;;;;;;;5054483;28;20501;-79
2022/07/23 11:47:02;;;;;;;2.60;0.60;;;;;;;;;;5060650;28;20529;-81
2022/07/23 11:49:30;;;;;;;1.50;0.60;;;;;;;;;;5065558;28;20908;-80
2022/07/23 11:52:06;;;;;;;1.50;0.70;;;;;;;;;;5065517;28;20446;-80
2022/07/23 11:54:36;;;;;;;1.70;0.80;;;;;;;;;;5070108;28;20441;-78
2022/07/23 11:57:04;;;;;;;1.80;0.80;;;;;;;;;;5068483;28;20493;-82
2022/07/23 11:59:33;;;;;;;1.87;0.60;;;;;;;;;;5062385;28;20469;-80
2022/07/23 12:02:02;;;;;;;1.57;0.60;;;;;;;;;;5065065;28;20543;-79
2022/07/23 12:04:39;;;;;;;2.90;0.90;;;;;;;;;;5063056;28;20599;-82
2022/07/23 12:07:07;;;;;;;2.17;1.00;;;;;;;;;;5045844;28;20454;-80
2022/07/23 12:09:36;;;;;;;1.80;0.70;;;;;;;;;;5041330;28;20446;-80
2022/07/23 12:12:04;;;;;;;2.47;0.70;;;;;;;;;;5049474;28;20532;-80
2022/07/23 12:14:32;;;;;;;2.13;0.80;;;;;;;;;;5065398;28;20675;-80
2022/07/23 12:17:10;;;;;;;1.70;0.60;;;;;;;;;;5063636;28;20449;-81
2022/07/23 12:19:38;;;;;;;1.50;0.70;;;;;;;;;;5066511;28;20461;-81
2022/07/23 12:22:06;;;;;;;2.50;0.70;;;;;;;;;;5061218;28;20519;-80
2022/07/23 12:24:49;;;;;;;2.53;0.60;;;;;;;;;;5061511;28;20928;-80
2022/07/23 12:27:21;;;;;;;3.00;0.70;;;;;;;;;;5060985;28;20449;-80
2022/07/23 12:29:49;;;;;;;1.60;0.60;;;;;;;;;;5063082;28;20529;-82
2022/07/23 12:32:27;;;;;;;2.13;0.70;;;;;;;;;;5065398;28;20442;-79
2022/07/23 12:35:05;;;;;;;2.00;0.60;;;;;;;;;;5063965;28;20449;-79
2022/07/23 12:37:33;;;;;;;1.37;0.50;;;;;;;;;;5067221;28;20453;-79
2022/07/23 12:40:19;;;;;;;2.00;0.63;;;;;;;;;;5065203;28;20449;-81
2022/07/23 12:42:51;;;;;;;3.53;0.70;;;;;;;;;;5066358;28;20434;-81
2022/07/23 12:45:19;;;;;;;1.60;0.63;;;;;;;;;;5063442;28;20524;-82
2022/07/23 12:47:55;;;;;;;2.03;1.43;;;;;;;;;;5065455;28;20449;-82
2022/07/23 12:50:42;;;;;;;2.17;0.90;;;;;;;;;;5061129;28;20469;-80
2022/07/23 12:53:19;;;;;;;2.40;0.70;;;;;;;;;;5062423;28;20453;-77
2022/07/23 12:55:56;;;;;;;2.30;0.60;;;;;;;;;;5064512;28;20483;-81
2022/07/23 12:58:26;;;;;;;3.20;0.63;;;;;;;;;;5063320;28;20469;-81
2022/07/23 13:01:03;;;;;;;2.03;0.63;;;;;;;;;;5058251;28;20543;-83
2022/07/23 13:03:33;;;;;;;2.07;0.70;;;;;;;;;;5059706;28;20509;-80
2022/07/23 13:06:01;;;;;;;2.40;0.60;;;;;;;;;;5061209;28;20504;-81
2022/07/23 13:08:30;;;;;;;1.30;0.50;;;;;;;;;;5064142;28;20464;-81
2022/07/23 13:10:59;;;;;;;1.40;0.60;;;;;;;;;;5063386;28;20838;-81
2022/07/23 13:13:30;;;;;;;1.80;0.70;;;;;;;;;;5051547;28;20450;-81
2022/07/23 13:15:58;;;;;;;2.20;0.77;;;;;;;;;;5052269;28;20552;-80
2022/07/23 13:18:26;;;;;;;1.40;0.60;;;;;;;;;;5060191;28;20450;-82
2022/07/23 13:20:54;;;;;;;1.50;0.70;;;;;;;;;;5059090;28;20470;-81
2022/07/23 13:23:23;;;;;;;2.20;0.70;;;;;;;;;;5053631;28;20446;-81
2022/07/23 13:25:51;;;;;;;2.07;0.60;;;;;;;;;;5058605;28;20453;-80
2022/07/23 13:28:20;;;;;;;2.40;0.93;;;;;;;;;;5046497;28;20470;-79
2022/07/23 13:30:50;;;;;;;1.87;0.70;;;;;;;;;;5051218;28;20466;-78
2022/07/23 13:33:19;;;;;;;2.30;0.83;;;;;;;;;;5059791;28;20457;-80
2022/07/23 13:35:47;;;;;;;2.13;0.63;;;;;;;;;;5069087;28;20460;-81
2022/07/23 13:38:16;;;;;;;3.87;0.90;;;;;;;;;;5066764;28;20507;-80
2022/07/23 13:40:45;;;;;;;1.90;0.60;;;;;;;;;;5061047;28;20516;-80
2022/07/23 13:43:13;;;;;;;3.00;0.70;;;;;;;;;;5054885;28;20465;-81
2022/07/23 13:45:41;;;;;;;4.10;0.80;;;;;;;;;;5056155;28;20485;-78
2022/07/23 13:48:11;;;;;;;2.97;0.73;;;;;;;;;;5058829;28;20466;-82
2022/07/23 13:50:39;;;;;;;1.57;0.60;;;;;;;;;;5058009;28;20575;-80
2022/07/23 13:53:07;;;;;;;1.80;0.70;;;;;;;;;;5056018;28;20519;-80
2022/07/23 13:55:36;;;;;;;8.60;5.50;;;;;;;;;;5060259;28;20473;-79
2022/07/23 13:58:04;;;;;;;2.57;0.57;;;;;;;;;;5059707;28;20663;-78
2022/07/23 14:00:33;;;;;;;2.40;0.70;;;;;;;;;;5059771;28;20493;-78
2022/07/23 14:03:01;;;;;;;2.80;0.63;;;;;;;;;;5058842;28;20499;-80
2022/07/23 14:05:31;;;;;;;2.13;0.67;;;;;;;;;;5066578;28;20519;-81
2022/07/23 14:08:01;;;;;;;2.10;0.70;;;;;;;;;;5065230;28;20477;-81
2022/07/23 14:10:29;;;;;;;1.60;0.60;;;;;;;;;;5066938;28;20449;-79
2022/07/23 14:12:57;;;;;;;2.43;0.80;;;;;;;;;;5061300;28;20702;-80
2022/07/23 14:15:26;;;;;;;1.70;0.70;;;;;;;;;;5052285;28;20457;-81
2022/07/23 14:17:54;;;;;;;2.67;0.70;;;;;;;;;;5061786;28;20477;-81
2022/07/23 14:20:22;;;;;;;1.37;0.50;;;;;;;;;;5058095;28;20765;-81
2022/07/23 14:23:00;;;;;;;2.00;1.00;;;;;;;;;;5054862;28;20461;-82
2022/07/23 14:25:31;;;;;;;4.10;1.57;;;;;;;;;;5057177;28;20516;-80
2022/07/23 14:27:59;;;;;;;3.87;1.73;;;;;;;;;;5056770;28;20445;-79
2022/07/23 14:30:26;;;;;;;3.13;1.00;;;;;;;;;;5052334;28;20497;-81
2022/07/23 14:32:57;;;;;;;3.30;1.00;;;;;;;;;;5058043;28;20524;-78
2022/07/23 14:35:25;;;;;;;1.80;0.90;;;;;;;;;;5057284;28;20471;-79
2022/07/23 14:37:55;;;;;;;1.90;0.70;;;;;;;;;;5060776;28;20512;-81
2022/07/23 14:40:24;;;;;;;2.50;0.73;;;;;;;;;;5059265;28;21091;-81
2022/07/23 14:42:51;;;;;;;2.10;0.60;;;;;;;;;;5062609;28;20495;-79
2022/07/23 14:45:20;;;;;;;2.77;0.77;;;;;;;;;;5063856;28;20494;-79
2022/07/23 14:47:48;;;;;;;3.30;0.67;;;;;;;;;;5063293;28;20469;-81
2022/07/23 14:50:17;;;;;;;1.70;0.80;;;;;;;;;;5059887;28;20458;-81
2022/07/23 14:52:46;;;;;;;2.37;1.10;;;;;;;;;;5055061;28;20504;-81
2022/07/23 14:55:16;;;;;;;1.90;0.80;;;;;;;;;;5057788;28;20446;-81
2022/07/23 14:57:44;;;;;;;4.27;1.03;;;;;;;;;;5057762;28;20542;-81
2022/07/23 15:00:25;;;;;;;2.30;0.80;;;;;;;;;;5049063;28;20454;-79